sensor_id;sensor_type;location;lat;lon;timestamp;pressure;altitude;pressure_sealevel;temperature;humidity
45541;BME280;31265;49.680;8.608;2022-07-24T00:00:38;100804.75;;;18.62;100.00
45541;BME280;31265;49.680;8.608;2022-07-24T00:03:06;100803.63;;;18.56;100.00
45541;BME280;31265;49.680;8.608;2022-07-24T00:05:35;100801.81;;;18.60;100.00
45541;BME280;31265;49.680;8.608;2022-07-24T00:08:05;100804.13;;;18.64;100.00
45541;BME280;31265;49.680;8.608;2022-07-24T00:10:33;100806.94;;;18.64;100.00
45541;BME280;31265;49.680;8.608;2022-07-24T00:13:02;100803.88;;;18.60;100.00
45541;BME280;31265;49.680;8.608;2022-07-24T00:15:30;100808.66;;;18.57;100.00
45541;BME280;31265;49.680;8.608;2022-07-24T00:17:58;100808.88;;;18.50;100.00
45541;BME280;31265;49.680;8.608;2022-07-24T00:20:26;100806.91;;;18.40;100.00
45541;BME280;31265;49.680;8.608;2022-07-24T00:22:54;100802.81;;;18.32;100.00
45541;BME280;31265;49.680;8.608;2022-07-24T00:25:23;100796.72;;;18.23;100.00
45541;BME280;31265;49.680;8.608;2022-07-24T00:27:52;100801.06;;;18.15;100.00
45541;BME280;31265;49.680;8.608;2022-07-24T00:30:20;100796.53;;;18.10;100.00
45541;BME280;31265;49.680;8.608;2022-07-24T00:32:48;100797.63;;;18.04;100.00
45541;BME280;31265;49.680;8.608;2022-07-24T00:35:16;100800.91;;;18.01;100.00
45541;BME280;31265;49.680;8.608;2022-07-24T00:37:45;100793.69;;;17.98;100.00
45541;BME280;31265;49.680;8.608;2022-07-24T00:40:15;100800.19;;;18.00;100.00
45541;BME280;31265;49.680;8.608;2022-07-24T00:42:44;100795.03;;;17.97;100.00
45541;BME280;31265;49.680;8.608;2022-07-24T00:45:12;100796.63;;;18.00;100.00
45541;BME280;31265;49.680;8.608;2022-07-24T00:47:51;100786.88;;;18.01;100.00
45541;BME280;31265;49.680;8.608;2022-07-24T00:50:23;100786.59;;;17.97;100.00
45541;BME280;31265;49.680;8.608;2022-07-24T00:52:52;100787.69;;;17.92;100.00
45541;BME280;31265;49.680;8.608;2022-07-24T00:55:20;100791.56;;;17.87;100.00
45541;BME280;31265;49.680;8.608;2022-07-24T00:57:50;100790.97;;;17.88;100.00
45541;BME280;31265;49.680;8.608;2022-07-24T01:00:19;100791.75;;;17.79;100.00
45541;BME280;31265;49.680;8.608;2022-07-24T01:02:48;100800.63;;;17.75;100.00
45541;BME280;31265;49.680;8.608;2022-07-24T01:05:17;100792.09;;;17.73;100.00
45541;BME280;31265;49.680;8.608;2022-07-24T01:07:46;100796.44;;;17.86;100.00
45541;BME280;31265;49.680;8.608;2022-07-24T01:10:14;100796.38;;;17.96;100.00
45541;BME280;31265;49.680;8.608;2022-07-24T01:12:42;100798.56;;;17.97;100.00
45541;BME280;31265;49.680;8.608;2022-07-24T01:15:12;100783.78;;;17.97;100.00
45541;BME280;31265;49.680;8.608;2022-07-24T01:17:41;100785.97;;;17.87;100.00
45541;BME280;31265;49.680;8.608;2022-07-24T01:20:10;100793.50;;;17.84;100.00
45541;BME280;31265;49.680;8.608;2022-07-24T01:22:40;100786.59;;;17.75;100.00
45541;BME280;31265;49.680;8.608;2022-07-24T01:25:08;100796.56;;;17.67;100.00
45541;BME280;31265;49.680;8.608;2022-07-24T01:27:38;100790.53;;;17.60;100.00
45541;BME280;31265;49.680;8.608;2022-07-24T01:30:07;100792.25;;;17.54;100.00
45541;BME280;31265;49.680;8.608;2022-07-24T01:32:35;100788.56;;;17.51;100.00
45541;BME280;31265;49.680;8.608;2022-07-24T01:35:04;100785.47;;;17.47;100.00
45541;BME280;31265;49.680;8.608;2022-07-24T01:37:33;100783.88;;;17.44;100.00
45541;BME280;31265;49.680;8.608;2022-07-24T01:40:03;100793.63;;;17.43;100.00
45541;BME280;31265;49.680;8.608;2022-07-24T01:42:31;100791.75;;;17.57;100.00
45541;BME280;31265;49.680;8.608;2022-07-24T01:44:59;100788.56;;;17.51;100.00
45541;BME280;31265;49.680;8.608;2022-07-24T01:47:27;100787.84;;;17.51;100.00
45541;BME280;31265;49.680;8.608;2022-07-24T01:49:55;100790.09;;;17.42;100.00
45541;BME280;31265;49.680;8.608;2022-07-24T01:52:23;100786.69;;;17.44;100.00
45541;BME280;31265;49.680;8.608;2022-07-24T01:54:52;100785.41;;;17.35;100.00
45541;BME280;31265;49.680;8.608;2022-07-24T01:57:23;100788.34;;;17.37;100.00
45541;BME280;31265;49.680;8.608;2022-07-24T01:59:56;100794.56;;;17.36;100.00
45541;BME280;31265;49.680;8.608;2022-07-24T02:02:25;100796.03;;;17.37;100.00
45541;BME280;31265;49.680;8.608;2022-07-24T02:04:53;100794.25;;;17.41;100.00
45541;BME280;31265;49.680;8.608;2022-07-24T02:07:21;100785.81;;;17.41;100.00
45541;BME280;31265;49.680;8.608;2022-07-24T02:09:49;100785.09;;;17.41;100.00
45541;BME280;31265;49.680;8.608;2022-07-24T02:12:17;100786.81;;;17.46;100.00
45541;BME280;31265;49.680;8.608;2022-07-24T02:14:46;100789.44;;;17.54;100.00
45541;BME280;31265;49.680;8.608;2022-07-24T02:17:14;100787.44;;;17.66;100.00
45541;BME280;31265;49.680;8.608;2022-07-24T02:19:42;100785.63;;;17.71;100.00
45541;BME280;31265;49.680;8.608;2022-07-24T02:22:10;100792.78;;;17.83;100.00
45541;BME280;31265;49.680;8.608;2022-07-24T02:24:38;100794.16;;;17.94;100.00
45541;BME280;31265;49.680;8.608;2022-07-24T02:27:06;100794.06;;;18.04;100.00
45541;BME280;31265;49.680;8.608;2022-07-24T02:29:34;100796.53;;;18.10;100.00
45541;BME280;31265;49.680;8.608;2022-07-24T02:32:04;100792.09;;;17.95;100.00
45541;BME280;31265;49.680;8.608;2022-07-24T02:34:33;100798.56;;;17.97;100.00
45541;BME280;31265;49.680;8.608;2022-07-24T02:37:01;100794.78;;;17.93;100.00
45541;BME280;31265;49.680;8.608;2022-07-24T02:39:29;100794.72;;;17.81;100.00
45541;BME280;31265;49.680;8.608;2022-07-24T02:41:57;100794.63;;;17.69;100.00
45541;BME280;31265;49.680;8.608;2022-07-24T02:44:25;100795.91;;;17.56;100.00
45541;BME280;31265;49.680;8.608;2022-07-24T02:46:53;100793.16;;;17.47;100.00
45541;BME280;31265;49.680;8.608;2022-07-24T02:49:23;100801.66;;;17.37;100.00
45541;BME280;31265;49.680;8.608;2022-07-24T02:51:52;100798.16;;;17.27;100.00
45541;BME280;31265;49.680;8.608;2022-07-24T02:54:20;100798.06;;;17.15;100.00
45541;BME280;31265;49.680;8.608;2022-07-24T02:56:48;100805.81;;;17.05;100.00
45541;BME280;31265;49.680;8.608;2022-07-24T02:59:16;100802.44;;;16.96;100.00
45541;BME280;31265;49.680;8.608;2022-07-24T03:01:44;100804.09;;;16.90;100.00
45541;BME280;31265;49.680;8.608;2022-07-24T03:04:12;100803.53;;;16.82;100.00
45541;BME280;31265;49.680;8.608;2022-07-24T03:06:42;100805.47;;;16.79;100.00
45541;BME280;31265;49.680;8.608;2022-07-24T03:09:10;100801.91;;;16.79;100.00
45541;BME280;31265;49.680;8.608;2022-07-24T03:11:38;100797.19;;;16.71;100.00
45541;BME280;31265;49.680;8.608;2022-07-24T03:14:06;100794.84;;;16.68;100.00
45541;BME280;31265;49.680;8.608;2022-07-24T03:16:34;100797.81;;;16.60;100.00
45541;BME280;31265;49.680;8.608;2022-07-24T03:19:05;100798.16;;;16.54;100.00
45541;BME280;31265;49.680;8.608;2022-07-24T03:21:34;100799.78;;;16.48;100.00
45541;BME280;31265;49.680;8.608;2022-07-24T03:24:17;100798.75;;;16.43;100.00
45541;BME280;31265;49.680;8.608;2022-07-24T03:26:45;100804.06;;;16.39;100.00
45541;BME280;31265;49.680;8.608;2022-07-24T03:29:13;100808.66;;;16.34;100.00
45541;BME280;31265;49.680;8.608;2022-07-24T03:31:42;100807.00;;;16.31;100.00
45541;BME280;31265;49.680;8.608;2022-07-24T03:34:10;100809.09;;;16.31;100.00
45541;BME280;31265;49.680;8.608;2022-07-24T03:36:38;100812.34;;;16.27;100.00
45541;BME280;31265;49.680;8.608;2022-07-24T03:39:06;100812.94;;;16.26;100.00
45541;BME280;31265;49.680;8.608;2022-07-24T03:41:37;100812.03;;;16.23;100.00
45541;BME280;31265;49.680;8.608;2022-07-24T03:44:05;100811.16;;;16.21;100.00
45541;BME280;31265;49.680;8.608;2022-07-24T03:46:33;100814.53;;;16.19;100.00
45541;BME280;31265;49.680;8.608;2022-07-24T03:49:01;100818.69;;;16.18;100.00
45541;BME280;31265;49.680;8.608;2022-07-24T03:51:30;100822.53;;;16.13;100.00
45541;BME280;31265;49.680;8.608;2022-07-24T03:54:01;100830.03;;;16.10;100.00
45541;BME280;31265;49.680;8.608;2022-07-24T03:56:29;100825.03;;;16.09;100.00
45541;BME280;31265;49.680;8.608;2022-07-24T03:58:59;100824.44;;;16.10;100.00
45541;BME280;31265;49.680;8.608;2022-07-24T04:01:28;100828.13;;;16.13;100.00
45541;BME280;31265;49.680;8.608;2022-07-24T04:03:56;100827.38;;;16.12;100.00
45541;BME280;31265;49.680;8.608;2022-07-24T04:06:25;100830.91;;;16.13;100.00
45541;BME280;31265;49.680;8.608;2022-07-24T04:08:53;100830.91;;;16.13;100.00
45541;BME280;31265;49.680;8.608;2022-07-24T04:11:21;100835.91;;;16.15;100.00
45541;BME280;31265;49.680;8.608;2022-07-24T04:13:49;100828.41;;;16.17;100.00
45541;BME280;31265;49.680;8.608;2022-07-24T04:16:18;100830.63;;;16.19;100.00
45541;BME280;31265;49.680;8.608;2022-07-24T04:18:46;100830.75;;;16.21;100.00
45541;BME280;31265;49.680;8.608;2022-07-24T04:21:14;100830.59;;;16.28;100.00
45541;BME280;31265;49.680;8.608;2022-07-24T04:23:43;100832.50;;;16.36;100.00
45541;BME280;31265;49.680;8.608;2022-07-24T04:26:11;100834.56;;;16.45;100.00
45541;BME280;31265;49.680;8.608;2022-07-24T04:28:39;100825.41;;;16.54;100.00
45541;BME280;31265;49.680;8.608;2022-07-24T04:31:08;100830.09;;;16.61;100.00
45541;BME280;31265;49.680;8.608;2022-07-24T04:33:38;100828.00;;;16.71;100.00
45541;BME280;31265;49.680;8.608;2022-07-24T04:36:06;100825.97;;;16.82;100.00
45541;BME280;31265;49.680;8.608;2022-07-24T04:38:38;100822.38;;;16.91;100.00
45541;BME280;31265;49.680;8.608;2022-07-24T04:41:06;100821.88;;;17.04;100.00
45541;BME280;31265;49.680;8.608;2022-07-24T04:43:34;100815.91;;;17.19;100.00
45541;BME280;31265;49.680;8.608;2022-07-24T04:46:03;100819.19;;;17.37;100.00
45541;BME280;31265;49.680;8.608;2022-07-24T04:48:31;100817.94;;;17.50;100.00
45541;BME280;31265;49.680;8.608;2022-07-24T04:51:00;100820.22;;;17.63;100.00
45541;BME280;31265;49.680;8.608;2022-07-24T04:53:28;100823.97;;;17.78;100.00
45541;BME280;31265;49.680;8.608;2022-07-24T04:55:57;100821.97;;;17.90;100.00
45541;BME280;31265;49.680;8.608;2022-07-24T04:58:26;100826.91;;;18.01;100.00
45541;BME280;31265;49.680;8.608;2022-07-24T05:00:54;100828.28;;;18.12;100.00
45541;BME280;31265;49.680;8.608;2022-07-24T05:03:23;100825.38;;;18.22;100.00
45541;BME280;31265;49.680;8.608;2022-07-24T05:05:51;100829.84;;;18.37;100.00
45541;BME280;31265;49.680;8.608;2022-07-24T05:08:20;100827.06;;;18.48;100.00
45541;BME280;31265;49.680;8.608;2022-07-24T05:10:48;100839.91;;;18.63;100.00
45541;BME280;31265;49.680;8.608;2022-07-24T05:13:16;100837.28;;;18.77;100.00
45541;BME280;31265;49.680;8.608;2022-07-24T05:15:45;100835.34;;;18.91;100.00
45541;BME280;31265;49.680;8.608;2022-07-24T05:18:13;100835.34;;;19.03;100.00
45541;BME280;31265;49.680;8.608;2022-07-24T05:20:41;100838.03;;;19.13;100.00
45541;BME280;31265;49.680;8.608;2022-07-24T05:23:09;100847.31;;;19.27;100.00
45541;BME280;31265;49.680;8.608;2022-07-24T05:25:39;100845.13;;;19.38;100.00
45541;BME280;31265;49.680;8.608;2022-07-24T05:28:13;100848.03;;;19.51;100.00
45541;BME280;31265;49.680;8.608;2022-07-24T05:30:41;100851.97;;;19.46;100.00
45541;BME280;31265;49.680;8.608;2022-07-24T05:33:09;100854.41;;;19.52;100.00
45541;BME280;31265;49.680;8.608;2022-07-24T05:35:37;100854.66;;;19.56;100.00
45541;BME280;31265;49.680;8.608;2022-07-24T05:38:05;100849.84;;;19.70;100.00
45541;BME280;31265;49.680;8.608;2022-07-24T05:40:33;100848.00;;;19.75;100.00
45541;BME280;31265;49.680;8.608;2022-07-24T05:43:03;100860.22;;;19.91;100.00
45541;BME280;31265;49.680;8.608;2022-07-24T05:45:31;100855.81;;;19.88;100.00
45541;BME280;31265;49.680;8.608;2022-07-24T05:47:59;100855.44;;;19.94;100.00
45541;BME280;31265;49.680;8.608;2022-07-24T05:50:27;100850.25;;;20.02;100.00
45541;BME280;31265;49.680;8.608;2022-07-24T05:52:55;100840.03;;;20.21;100.00
45541;BME280;31265;49.680;8.608;2022-07-24T05:55:23;100842.31;;;20.24;100.00
45541;BME280;31265;49.680;8.608;2022-07-24T05:57:51;100855.00;;;20.37;100.00
45541;BME280;31265;49.680;8.608;2022-07-24T06:00:20;100853.66;;;20.38;100.00
45541;BME280;31265;49.680;8.608;2022-07-24T06:02:49;100856.19;;;20.20;100.00
45541;BME280;31265;49.680;8.608;2022-07-24T06:05:17;100863.19;;;20.19;100.00
45541;BME280;31265;49.680;8.608;2022-07-24T06:07:46;100866.28;;;20.37;100.00
45541;BME280;31265;49.680;8.608;2022-07-24T06:10:14;100864.94;;;20.38;100.00
45541;BME280;31265;49.680;8.608;2022-07-24T06:12:42;100869.88;;;20.51;100.00
45541;BME280;31265;49.680;8.608;2022-07-24T06:15:11;100867.03;;;20.63;100.00
45541;BME280;31265;49.680;8.608;2022-07-24T06:17:41;100872.16;;;20.67;100.00
45541;BME280;31265;49.680;8.608;2022-07-24T06:20:09;100865.53;;;20.88;100.00
45541;BME280;31265;49.680;8.608;2022-07-24T06:22:39;100867.13;;;21.04;100.00
45541;BME280;31265;49.680;8.608;2022-07-24T06:25:15;100877.47;;;21.14;99.51
45541;BME280;31265;49.680;8.608;2022-07-24T06:27:44;100885.34;;;21.43;97.58
45541;BME280;31265;49.680;8.608;2022-07-24T06:30:14;100883.78;;;21.67;93.95
45541;BME280;31265;49.680;8.608;2022-07-24T06:32:43;100885.59;;;21.90;92.18
45541;BME280;31265;49.680;8.608;2022-07-24T06:35:11;100887.88;;;22.08;90.93
45541;BME280;31265;49.680;8.608;2022-07-24T06:37:40;100879.66;;;21.84;92.84
45541;BME280;31265;49.680;8.608;2022-07-24T06:40:14;100884.78;;;21.88;93.41
45541;BME280;31265;49.680;8.608;2022-07-24T06:42:43;100880.47;;;22.01;91.16
45541;BME280;31265;49.680;8.608;2022-07-24T06:45:11;100875.50;;;22.29;88.46
45541;BME280;31265;49.680;8.608;2022-07-24T06:47:39;100881.31;;;22.63;87.14
45541;BME280;31265;49.680;8.608;2022-07-24T06:50:11;100881.91;;;23.07;80.25
45541;BME280;31265;49.680;8.608;2022-07-24T06:52:40;100872.03;;;23.39;73.85
45541;BME280;31265;49.680;8.608;2022-07-24T06:55:09;100872.78;;;23.58;74.91
45541;BME280;31265;49.680;8.608;2022-07-24T06:57:37;100870.56;;;23.72;73.30
45541;BME280;31265;49.680;8.608;2022-07-24T07:00:07;100877.19;;;24.13;70.56
45541;BME280;31265;49.680;8.608;2022-07-24T07:02:36;100874.09;;;24.42;71.27
45541;BME280;31265;49.680;8.608;2022-07-24T07:05:05;100860.75;;;24.63;66.49
45541;BME280;31265;49.680;8.608;2022-07-24T07:07:34;100866.91;;;24.95;68.84
45541;BME280;31265;49.680;8.608;2022-07-24T07:10:04;100869.06;;;24.97;66.73
45541;BME280;31265;49.680;8.608;2022-07-24T07:12:33;100862.75;;;24.60;69.48
45541;BME280;31265;49.680;8.608;2022-07-24T07:15:07;100861.19;;;24.75;68.16
45541;BME280;31265;49.680;8.608;2022-07-24T07:17:37;100863.28;;;25.33;63.19
45541;BME280;31265;49.680;8.608;2022-07-24T07:20:07;100861.13;;;25.95;59.74
45541;BME280;31265;49.680;8.608;2022-07-24T07:22:37;100859.13;;;25.78;59.30
45541;BME280;31265;49.680;8.608;2022-07-24T07:25:06;100860.00;;;26.04;57.61
45541;BME280;31265;49.680;8.608;2022-07-24T07:27:35;100856.38;;;26.24;58.31
45541;BME280;31265;49.680;8.608;2022-07-24T07:30:04;100870.00;;;26.51;56.04
45541;BME280;31265;49.680;8.608;2022-07-24T07:32:33;100862.66;;;26.92;53.72
45541;BME280;31265;49.680;8.608;2022-07-24T07:35:01;100860.09;;;27.02;52.24
45541;BME280;31265;49.680;8.608;2022-07-24T07:37:31;100856.22;;;27.42;51.00
45541;BME280;31265;49.680;8.608;2022-07-24T07:40:00;100854.25;;;27.22;51.89
45541;BME280;31265;49.680;8.608;2022-07-24T07:42:29;100855.97;;;27.60;50.56
45541;BME280;31265;49.680;8.608;2022-07-24T07:44:57;100849.84;;;27.72;47.41
45541;BME280;31265;49.680;8.608;2022-07-24T07:47:25;100853.22;;;27.92;47.86
45541;BME280;31265;49.680;8.608;2022-07-24T07:49:53;100849.22;;;27.75;46.22
45541;BME280;31265;49.680;8.608;2022-07-24T07:52:22;100852.44;;;28.20;46.36
45541;BME280;31265;49.680;8.608;2022-07-24T07:54:50;100867.16;;;28.72;46.10
45541;BME280;31265;49.680;8.608;2022-07-24T07:57:20;100868.88;;;28.51;43.70
45541;BME280;31265;49.680;8.608;2022-07-24T08:00:08;100859.25;;;28.69;42.34
45541;BME280;31265;49.680;8.608;2022-07-24T08:02:40;100861.44;;;28.72;41.55
45541;BME280;31265;49.680;8.608;2022-07-24T08:05:08;100864.44;;;28.79;41.87
45541;BME280;31265;49.680;8.608;2022-07-24T08:07:37;100865.53;;;28.98;42.96
45541;BME280;31265;49.680;8.608;2022-07-24T08:10:06;100864.34;;;29.47;40.33
45541;BME280;31265;49.680;8.608;2022-07-24T08:12:38;100870.84;;;29.94;39.67
45541;BME280;31265;49.680;8.608;2022-07-24T08:15:07;100868.91;;;29.63;39.11
45541;BME280;31265;49.680;8.608;2022-07-24T08:17:36;100868.81;;;29.58;41.21
45541;BME280;31265;49.680;8.608;2022-07-24T08:20:04;100863.16;;;29.61;36.88
45541;BME280;31265;49.680;8.608;2022-07-24T08:22:33;100869.59;;;29.61;38.87
45541;BME280;31265;49.680;8.608;2022-07-24T08:25:01;100871.09;;;30.09;37.91
45541;BME280;31265;49.680;8.608;2022-07-24T08:27:29;100867.16;;;29.86;36.52
45541;BME280;31265;49.680;8.608;2022-07-24T08:29:58;100866.75;;;30.52;38.57
45541;BME280;31265;49.680;8.608;2022-07-24T08:32:27;100860.78;;;30.91;35.91
45541;BME280;31265;49.680;8.608;2022-07-24T08:34:55;100855.28;;;30.52;35.53
45541;BME280;31265;49.680;8.608;2022-07-24T08:37:23;100866.44;;;30.84;35.11
45541;BME280;31265;49.680;8.608;2022-07-24T08:39:51;100860.09;;;30.92;35.15
45541;BME280;31265;49.680;8.608;2022-07-24T08:42:21;100863.88;;;30.52;37.15
45541;BME280;31265;49.680;8.608;2022-07-24T08:44:49;100857.34;;;30.46;36.97
45541;BME280;31265;49.680;8.608;2022-07-24T08:47:19;100860.59;;;30.76;36.08
45541;BME280;31265;49.680;8.608;2022-07-24T08:49:51;100861.06;;;31.15;35.37
45541;BME280;31265;49.680;8.608;2022-07-24T08:52:22;100852.56;;;31.23;36.28
45541;BME280;31265;49.680;8.608;2022-07-24T08:54:50;100856.41;;;31.48;34.44
45541;BME280;31265;49.680;8.608;2022-07-24T08:57:18;100850.69;;;31.53;34.11
45541;BME280;31265;49.680;8.608;2022-07-24T08:59:46;100849.50;;;31.07;33.21
45541;BME280;31265;49.680;8.608;2022-07-24T09:02:15;100837.94;;;30.95;35.89
45541;BME280;31265;49.680;8.608;2022-07-24T09:04:45;100848.38;;;31.37;33.48
45541;BME280;31265;49.680;8.608;2022-07-24T09:07:15;100851.31;;;31.43;34.34
45541;BME280;31265;49.680;8.608;2022-07-24T09:09:58;100846.03;;;31.94;32.60
45541;BME280;31265;49.680;8.608;2022-07-24T09:12:30;100847.78;;;31.46;33.04
45541;BME280;31265;49.680;8.608;2022-07-24T09:14:59;100839.44;;;31.79;32.68
45541;BME280;31265;49.680;8.608;2022-07-24T09:17:28;100832.81;;;31.56;34.11
45541;BME280;31265;49.680;8.608;2022-07-24T09:19:58;100838.66;;;31.68;33.69
45541;BME280;31265;49.680;8.608;2022-07-24T09:22:35;100835.91;;;31.87;31.65
45541;BME280;31265;49.680;8.608;2022-07-24T09:25:12;100831.88;;;32.27;32.14
45541;BME280;31265;49.680;8.608;2022-07-24T09:27:46;100836.41;;;31.57;33.33
45541;BME280;31265;49.680;8.608;2022-07-24T09:30:26;100832.50;;;31.25;32.63
45541;BME280;31265;49.680;8.608;2022-07-24T09:32:57;100827.91;;;30.94;34.64
45541;BME280;31265;49.680;8.608;2022-07-24T09:35:31;100828.78;;;31.90;32.75
45541;BME280;31265;49.680;8.608;2022-07-24T09:38:00;100828.88;;;31.98;35.35
45541;BME280;31265;49.680;8.608;2022-07-24T09:40:31;100822.59;;;32.30;32.98
45541;BME280;31265;49.680;8.608;2022-07-24T09:43:17;100834.41;;;33.20;30.55
45541;BME280;31265;49.680;8.608;2022-07-24T09:45:54;100826.41;;;32.82;30.08
45541;BME280;31265;49.680;8.608;2022-07-24T09:48:23;100820.69;;;32.98;30.55
45541;BME280;31265;49.680;8.608;2022-07-24T09:50:55;100825.81;;;33.43;30.80
45541;BME280;31265;49.680;8.608;2022-07-24T09:53:25;100822.94;;;33.43;29.69
45541;BME280;31265;49.680;8.608;2022-07-24T09:56:03;100824.69;;;32.24;32.97
45541;BME280;31265;49.680;8.608;2022-07-24T09:58:33;100818.53;;;32.87;32.44
45541;BME280;31265;49.680;8.608;2022-07-24T10:01:02;100817.94;;;33.52;32.18
45541;BME280;31265;49.680;8.608;2022-07-24T10:03:32;100817.81;;;32.98;30.33
45541;BME280;31265;49.680;8.608;2022-07-24T10:06:04;100814.34;;;33.61;29.70
45541;BME280;31265;49.680;8.608;2022-07-24T10:08:36;100810.72;;;33.75;30.26
45541;BME280;31265;49.680;8.608;2022-07-24T10:11:05;100812.69;;;34.57;28.38
45541;BME280;31265;49.680;8.608;2022-07-24T10:13:34;100813.41;;;34.65;28.63
45541;BME280;31265;49.680;8.608;2022-07-24T10:16:22;100801.66;;;35.04;28.02
45541;BME280;31265;49.680;8.608;2022-07-24T10:18:54;100810.56;;;34.51;28.40
45541;BME280;31265;49.680;8.608;2022-07-24T10:21:25;100813.28;;;34.88;27.53
45541;BME280;31265;49.680;8.608;2022-07-24T10:27:22;100801.81;;;34.78;30.19
45541;BME280;31265;49.680;8.608;2022-07-24T10:29:52;100797.66;;;34.38;30.00
45541;BME280;31265;49.680;8.608;2022-07-24T10:32:21;100800.50;;;34.52;28.17
45541;BME280;31265;49.680;8.608;2022-07-24T10:34:51;100795.16;;;35.10;27.73
45541;BME280;31265;49.680;8.608;2022-07-24T10:37:28;100780.88;;;35.78;27.06
45541;BME280;31265;49.680;8.608;2022-07-24T10:40:09;100782.34;;;35.77;28.34
45541;BME280;31265;49.680;8.608;2022-07-24T10:43:07;100787.13;;;35.23;29.04
45541;BME280;31265;49.680;8.608;2022-07-24T10:45:37;100781.00;;;34.63;29.11
45541;BME280;31265;49.680;8.608;2022-07-24T10:48:25;100776.16;;;34.04;29.15
45541;BME280;31265;49.680;8.608;2022-07-24T10:53:52;100756.56;;;35.57;29.29
45541;BME280;31265;49.680;8.608;2022-07-24T10:56:26;100756.69;;;35.42;29.05
45541;BME280;31265;49.680;8.608;2022-07-24T10:58:58;100762.94;;;34.73;28.59
45541;BME280;31265;49.680;8.608;2022-07-24T11:01:35;100751.59;;;34.38;31.01
45541;BME280;31265;49.680;8.608;2022-07-24T11:04:24;100754.59;;;33.99;28.55
45541;BME280;31265;49.680;8.608;2022-07-24T11:06:54;100756.81;;;35.28;28.21
45541;BME280;31265;49.680;8.608;2022-07-24T11:09:25;100749.50;;;35.41;26.76
45541;BME280;31265;49.680;8.608;2022-07-24T11:12:05;100747.59;;;35.89;25.91
45541;BME280;31265;49.680;8.608;2022-07-24T11:14:49;100740.06;;;35.47;26.54
45541;BME280;31265;49.680;8.608;2022-07-24T11:17:37;100747.19;;;34.55;28.35
45541;BME280;31265;49.680;8.608;2022-07-24T11:20:07;100738.59;;;34.45;27.91
45541;BME280;31265;49.680;8.608;2022-07-24T11:22:40;100738.91;;;35.89;25.95
45541;BME280;31265;49.680;8.608;2022-07-24T11:25:13;100737.69;;;35.68;25.64
45541;BME280;31265;49.680;8.608;2022-07-24T11:27:51;100734.47;;;36.01;26.71
45541;BME280;31265;49.680;8.608;2022-07-24T11:30:20;100732.78;;;36.22;23.71
45541;BME280;31265;49.680;8.608;2022-07-24T11:32:48;100724.88;;;36.21;25.58
45541;BME280;31265;49.680;8.608;2022-07-24T11:35:16;100720.63;;;36.67;24.62
45541;BME280;31265;49.680;8.608;2022-07-24T11:37:45;100725.31;;;36.91;25.41
45541;BME280;31265;49.680;8.608;2022-07-24T11:40:16;100717.66;;;36.73;23.24
45541;BME280;31265;49.680;8.608;2022-07-24T11:42:44;100716.16;;;36.76;24.42
45541;BME280;31265;49.680;8.608;2022-07-24T11:45:12;100709.09;;;36.11;23.75
45541;BME280;31265;49.680;8.608;2022-07-24T11:47:40;100710.94;;;36.35;23.97
45541;BME280;31265;49.680;8.608;2022-07-24T11:50:09;100707.56;;;36.19;23.97
45541;BME280;31265;49.680;8.608;2022-07-24T11:52:39;100708.28;;;36.17;26.01
45541;BME280;31265;49.680;8.608;2022-07-24T11:55:10;100702.81;;;36.48;25.88
45541;BME280;31265;49.680;8.608;2022-07-24T11:57:45;100694.91;;;36.94;24.88
45541;BME280;31265;49.680;8.608;2022-07-24T12:00:34;100696.72;;;36.19;25.35
45541;BME280;31265;49.680;8.608;2022-07-24T12:03:02;100694.06;;;36.56;23.92
45541;BME280;31265;49.680;8.608;2022-07-24T12:05:33;100680.72;;;37.21;23.59
45541;BME280;31265;49.680;8.608;2022-07-24T12:08:04;100672.06;;;36.78;25.05
45541;BME280;31265;49.680;8.608;2022-07-24T12:10:42;100671.06;;;35.90;25.54
45541;BME280;31265;49.680;8.608;2022-07-24T12:13:12;100670.50;;;36.35;25.88
45541;BME280;31265;49.680;8.608;2022-07-24T12:15:42;100667.59;;;35.05;27.11
45541;BME280;31265;49.680;8.608;2022-07-24T12:18:11;100662.41;;;35.26;26.73
45541;BME280;31265;49.680;8.608;2022-07-24T12:20:40;100657.66;;;36.24;25.01
45541;BME280;31265;49.680;8.608;2022-07-24T12:23:10;100656.06;;;35.09;27.16
45541;BME280;31265;49.680;8.608;2022-07-24T12:25:39;100650.66;;;35.45;26.88
45541;BME280;31265;49.680;8.608;2022-07-24T12:28:09;100643.63;;;35.29;26.64
45541;BME280;31265;49.680;8.608;2022-07-24T12:30:39;100650.59;;;35.51;27.35
45541;BME280;31265;49.680;8.608;2022-07-24T12:33:19;100639.06;;;34.71;28.68
45541;BME280;31265;49.680;8.608;2022-07-24T12:35:53;100630.56;;;34.50;26.85
45541;BME280;31265;49.680;8.608;2022-07-24T12:38:26;100631.63;;;35.00;27.30
45541;BME280;31265;49.680;8.608;2022-07-24T12:41:03;100633.72;;;33.99;28.89
45541;BME280;31265;49.680;8.608;2022-07-24T12:43:32;100635.28;;;33.69;29.35
45541;BME280;31265;49.680;8.608;2022-07-24T12:46:10;100629.25;;;34.33;28.95
45541;BME280;31265;49.680;8.608;2022-07-24T12:48:38;100625.28;;;35.58;25.99
45541;BME280;31265;49.680;8.608;2022-07-24T12:51:08;100632.16;;;35.87;25.84
45541;BME280;31265;49.680;8.608;2022-07-24T12:53:39;100622.97;;;35.72;25.15
45541;BME280;31265;49.680;8.608;2022-07-24T12:56:13;100614.75;;;35.31;26.49
45541;BME280;31265;49.680;8.608;2022-07-24T12:58:54;100620.13;;;34.94;27.80
45541;BME280;31265;49.680;8.608;2022-07-24T13:01:26;100612.97;;;34.89;26.88
45541;BME280;31265;49.680;8.608;2022-07-24T13:03:57;100612.59;;;35.30;27.64
45541;BME280;31265;49.680;8.608;2022-07-24T13:06:32;100607.19;;;34.93;26.63